Time;durP1;ratioP1;P1;durP2;ratioP2;P2;SDS_P1;SDS_P2;PMS_P1;PMS_P2;Temp;Humidity;BMP_temperature;BMP_pressure;BME280_temperature;BME280_humidity;BME280_pressure;Samples;Min_cycle;Max_cycle;Signal;HPM_P1;HPM_P2
2022/08/24 00:01:12;;;;;;;1.73;1.30;;;;;;;;;;4993160;28;20112;-83
2022/08/24 00:03:39;;;;;;;6.78;1.70;;;;;;;;;;4982862;28;20050;-84
2022/08/24 00:06:07;;;;;;;3.40;1.73;;;;;;;;;;4983623;28;20493;-83
2022/08/24 00:08:32;;;;;;;2.20;1.70;;;;;;;;;;4985949;28;20027;-83
2022/08/24 00:10:58;;;;;;;2.38;1.55;;;;;;;;;;4986034;28;20096;-82
2022/08/24 00:13:24;;;;;;;2.40;1.45;;;;;;;;;;4988113;28;20046;-83
2022/08/24 00:16:04;;;;;;;1.80;1.50;;;;;;;;;;4974617;28;20038;-83
2022/08/24 00:18:29;;;;;;;2.20;1.73;;;;;;;;;;4988767;28;20105;-82
2022/08/24 00:20:58;;;;;;;2.72;1.55;;;;;;;;;;4986024;28;20110;-83
2022/08/24 00:23:23;;;;;;;2.22;1.50;;;;;;;;;;4986837;28;20033;-84
2022/08/24 00:25:49;;;;;;;4.97;1.88;;;;;;;;;;4983832;28;20042;-83
2022/08/24 00:28:15;;;;;;;2.40;1.67;;;;;;;;;;4989921;28;20035;-82
2022/08/24 00:30:41;;;;;;;1.85;1.38;;;;;;;;;;4993142;28;20041;-83
2022/08/24 00:33:07;;;;;;;2.08;1.60;;;;;;;;;;4998047;28;20050;-83
2022/08/24 00:35:32;;;;;;;1.95;1.70;;;;;;;;;;5002501;28;20065;-83
2022/08/24 00:37:57;;;;;;;3.13;1.75;;;;;;;;;;5001245;28;20037;-83
2022/08/24 00:40:35;;;;;;;2.90;1.83;;;;;;;;;;4994707;28;20034;-82
2022/08/24 00:43:04;;;;;;;2.92;1.85;;;;;;;;;;4988931;28;20050;-83
2022/08/24 00:45:33;;;;;;;2.45;1.80;;;;;;;;;;4986650;28;20106;-83
2022/08/24 00:48:06;;;;;;;3.05;1.80;;;;;;;;;;4969389;28;20455;-83
2022/08/24 00:50:43;;;;;;;2.42;1.85;;;;;;;;;;4976612;28;20057;-83
2022/08/24 00:53:22;;;;;;;2.45;1.70;;;;;;;;;;4992485;28;20196;-83
2022/08/24 00:55:51;;;;;;;2.47;1.92;;;;;;;;;;4977686;28;20034;-84
2022/08/24 00:58:26;;;;;;;3.13;1.80;;;;;;;;;;5000645;28;20125;-83
2022/08/24 01:00:59;;;;;;;6.05;2.30;;;;;;;;;;4992446;28;20545;-83
2022/08/24 01:03:26;;;;;;;2.13;1.75;;;;;;;;;;5024941;28;20104;-83
2022/08/24 01:06:02;;;;;;;4.38;2.10;;;;;;;;;;5014245;28;20109;-83
2022/08/24 01:08:27;;;;;;;3.72;2.08;;;;;;;;;;5005987;28;20030;-83
2022/08/24 01:10:57;;;;;;;4.22;2.40;;;;;;;;;;5004053;28;20046;-83
2022/08/24 01:13:24;;;;;;;4.78;2.40;;;;;;;;;;5009923;28;20041;-83
2022/08/24 01:15:53;;;;;;;5.53;3.58;;;;;;;;;;5014056;28;20037;-83
2022/08/24 01:21:19;;;;;;;3.70;2.40;;;;;;;;;;5018063;28;20090;-83
2022/08/24 01:23:48;;;;;;;3.88;2.55;;;;;;;;;;5016623;28;20025;-83
2022/08/24 01:26:18;;;;;;;5.25;2.38;;;;;;;;;;5020916;28;20509;-83
2022/08/24 01:28:47;;;;;;;3.47;2.15;;;;;;;;;;5016926;28;20464;-83
2022/08/24 01:31:13;;;;;;;2.83;2.17;;;;;;;;;;5024124;28;20037;-83
2022/08/24 01:33:38;;;;;;;3.95;2.40;;;;;;;;;;4998550;28;20056;-83
2022/08/24 01:36:17;;;;;;;3.88;2.30;;;;;;;;;;5008914;28;20424;-83
2022/08/24 01:38:44;;;;;;;4.53;2.33;;;;;;;;;;5008346;28;20018;-83
2022/08/24 01:41:09;;;;;;;3.70;2.45;;;;;;;;;;5012020;28;20124;-83
2022/08/24 01:43:35;;;;;;;2.42;2.10;;;;;;;;;;5012929;28;20496;-83
2022/08/24 01:46:00;;;;;;;3.40;2.22;;;;;;;;;;5016030;28;20064;-81
2022/08/24 01:48:25;;;;;;;3.88;2.55;;;;;;;;;;5013082;28;20093;-82
2022/08/24 01:50:51;;;;;;;4.95;2.47;;;;;;;;;;5021511;28;20609;-82
2022/08/24 01:53:18;;;;;;;4.40;2.40;;;;;;;;;;5020390;28;20014;-82
2022/08/24 01:55:44;;;;;;;3.33;2.15;;;;;;;;;;5020177;28;20037;-82
2022/08/24 01:58:09;;;;;;;3.85;2.53;;;;;;;;;;5009106;28;20058;-81
2022/08/24 02:00:35;;;;;;;3.40;2.20;;;;;;;;;;5020225;28;20076;-82
2022/08/24 02:03:01;;;;;;;4.00;2.55;;;;;;;;;;5018516;28;20032;-81
2022/08/24 02:05:26;;;;;;;6.18;2.92;;;;;;;;;;5008740;28;20030;-82
2022/08/24 02:07:52;;;;;;;4.95;3.00;;;;;;;;;;5009253;28;20037;-82
2022/08/24 02:10:18;;;;;;;4.75;3.00;;;;;;;;;;5007328;28;20030;-82
2022/08/24 02:12:56;;;;;;;5.40;2.70;;;;;;;;;;5010474;28;20038;-82
2022/08/24 02:15:26;;;;;;;4.93;2.95;;;;;;;;;;4998478;28;20080;-81
2022/08/24 02:17:52;;;;;;;4.22;3.10;;;;;;;;;;5017739;28;20032;-82
2022/08/24 02:20:20;;;;;;;4.22;2.90;;;;;;;;;;5018620;28;20026;-82
2022/08/24 02:22:45;;;;;;;5.68;3.17;;;;;;;;;;5006705;28;20220;-82
2022/08/24 02:25:11;;;;;;;8.10;3.58;;;;;;;;;;5006674;28;20698;-82
2022/08/24 02:27:36;;;;;;;6.00;3.65;;;;;;;;;;5014499;28;20045;-81
2022/08/24 02:30:02;;;;;;;5.88;3.80;;;;;;;;;;5016910;28;20028;-82
2022/08/24 02:32:27;;;;;;;5.47;3.70;;;;;;;;;;5007371;28;20038;-81
2022/08/24 02:34:53;;;;;;;6.15;3.55;;;;;;;;;;4995204;28;20396;-82
2022/08/24 02:37:18;;;;;;;6.55;3.28;;;;;;;;;;5003880;28;20181;-82
2022/08/24 02:39:44;;;;;;;6.75;3.92;;;;;;;;;;5010522;28;20392;-82
2022/08/24 02:42:09;;;;;;;6.20;3.67;;;;;;;;;;4993933;28;20050;-81
2022/08/24 02:44:34;;;;;;;7.47;3.90;;;;;;;;;;5009525;28;20022;-82
2022/08/24 02:47:00;;;;;;;5.95;3.90;;;;;;;;;;5021137;28;20115;-82
2022/08/24 02:49:25;;;;;;;6.35;3.40;;;;;;;;;;5006770;28;20069;-82
2022/08/24 02:51:50;;;;;;;5.78;4.05;;;;;;;;;;5011775;28;20515;-82
2022/08/24 02:54:17;;;;;;;8.13;4.75;;;;;;;;;;5017140;28;20103;-81
2022/08/24 02:56:43;;;;;;;6.50;3.90;;;;;;;;;;5015107;28;20047;-82
2022/08/24 02:59:08;;;;;;;7.97;3.65;;;;;;;;;;5010924;28;20105;-81
2022/08/24 03:01:34;;;;;;;6.65;3.70;;;;;;;;;;5012632;28;20038;-82
2022/08/24 03:03:59;;;;;;;5.53;3.42;;;;;;;;;;5016142;28;20040;-82
2022/08/24 03:06:25;;;;;;;5.03;3.63;;;;;;;;;;5011140;28;20036;-82
2022/08/24 03:08:50;;;;;;;7.30;3.88;;;;;;;;;;5013109;28;20776;-82
2022/08/24 03:11:16;;;;;;;8.60;4.47;;;;;;;;;;5012674;28;20658;-82
2022/08/24 03:13:41;;;;;;;7.75;4.43;;;;;;;;;;4991605;28;20069;-82
2022/08/24 03:16:07;;;;;;;5.97;3.90;;;;;;;;;;5014075;28;20037;-81
2022/08/24 03:18:33;;;;;;;14.25;4.53;;;;;;;;;;5006303;28;20037;-81
2022/08/24 03:20:59;;;;;;;7.57;4.65;;;;;;;;;;5021042;28;20033;-82
2022/08/24 03:23:26;;;;;;;6.05;3.55;;;;;;;;;;5021985;28;20451;-81
2022/08/24 03:25:55;;;;;;;6.82;3.70;;;;;;;;;;5016883;28;20033;-82
2022/08/24 03:28:22;;;;;;;5.55;3.60;;;;;;;;;;4990908;28;20041;-81
2022/08/24 03:30:47;;;;;;;8.45;4.28;;;;;;;;;;4992113;28;20460;-82
2022/08/24 03:33:13;;;;;;;6.78;3.83;;;;;;;;;;5007063;28;20500;-81
2022/08/24 03:35:38;;;;;;;7.63;4.43;;;;;;;;;;5014012;28;20034;-82
2022/08/24 03:38:04;;;;;;;7.68;4.18;;;;;;;;;;5015254;28;20025;-81
2022/08/24 03:40:32;;;;;;;12.98;4.72;;;;;;;;;;5022381;28;20072;-81
2022/08/24 03:42:58;;;;;;;6.53;4.30;;;;;;;;;;5001365;28;20503;-82
2022/08/24 03:45:23;;;;;;;8.90;5.25;;;;;;;;;;5020796;28;20042;-81
2022/08/24 03:47:49;;;;;;;6.50;3.60;;;;;;;;;;5031974;28;20102;-82
2022/08/24 03:50:15;;;;;;;5.80;3.67;;;;;;;;;;5031347;28;20033;-82
2022/08/24 03:52:40;;;;;;;12.48;4.07;;;;;;;;;;5026335;28;20049;-82
2022/08/24 03:55:07;;;;;;;7.38;4.18;;;;;;;;;;5029738;28;20447;-82
2022/08/24 03:57:33;;;;;;;8.65;4.43;;;;;;;;;;5026024;28;20050;-82
2022/08/24 04:00:00;;;;;;;8.10;4.38;;;;;;;;;;5009503;28;20029;-82
2022/08/24 04:02:26;;;;;;;5.68;3.78;;;;;;;;;;5009819;28;20105;-81
2022/08/24 04:04:51;;;;;;;8.95;4.68;;;;;;;;;;5008593;28;20054;-81
2022/08/24 04:07:16;;;;;;;6.78;4.25;;;;;;;;;;5016398;28;20038;-82
2022/08/24 04:09:42;;;;;;;6.07;3.80;;;;;;;;;;5013596;28;20084;-82
2022/08/24 04:12:07;;;;;;;5.80;3.80;;;;;;;;;;4990574;28;20519;-81
2022/08/24 04:14:33;;;;;;;8.48;4.20;;;;;;;;;;4990390;28;20496;-81
2022/08/24 04:16:59;;;;;;;7.10;3.97;;;;;;;;;;5013238;28;20411;-81
2022/08/24 04:19:26;;;;;;;8.57;4.20;;;;;;;;;;5009948;28;20119;-82
2022/08/24 04:21:52;;;;;;;7.10;3.80;;;;;;;;;;5010225;28;20049;-82
2022/08/24 04:24:18;;;;;;;6.43;3.42;;;;;;;;;;5004924;28;20041;-81
2022/08/24 04:26:43;;;;;;;7.05;3.55;;;;;;;;;;5017744;28;20053;-81
2022/08/24 04:29:11;;;;;;;5.68;3.88;;;;;;;;;;5006889;28;20029;-82
2022/08/24 04:31:38;;;;;;;7.43;3.42;;;;;;;;;;5010752;28;20042;-82
2022/08/24 04:34:04;;;;;;;5.43;3.63;;;;;;;;;;5025085;28;20048;-82
2022/08/24 04:36:31;;;;;;;8.05;3.70;;;;;;;;;;5018344;28;20037;-82
2022/08/24 04:38:56;;;;;;;6.38;3.92;;;;;;;;;;4989517;28;20045;-82
2022/08/24 04:41:21;;;;;;;7.55;4.00;;;;;;;;;;5008377;28;20026;-82
2022/08/24 04:43:48;;;;;;;7.40;4.18;;;;;;;;;;5006742;28;20041;-82
2022/08/24 04:46:15;;;;;;;7.47;4.00;;;;;;;;;;4985173;28;20057;-82
2022/08/24 04:48:43;;;;;;;6.18;3.95;;;;;;;;;;4986681;28;20046;-82
2022/08/24 04:51:10;;;;;;;6.53;3.92;;;;;;;;;;4986172;28;20096;-82
2022/08/24 04:53:37;;;;;;;6.50;3.92;;;;;;;;;;4997340;28;20030;-83
2022/08/24 04:56:07;;;;;;;6.38;3.58;;;;;;;;;;4985329;28;20038;-82
2022/08/24 04:58:33;;;;;;;6.05;3.85;;;;;;;;;;5006078;28;20060;-83
2022/08/24 05:00:59;;;;;;;6.65;3.85;;;;;;;;;;5016668;28;20034;-83
2022/08/24 05:03:24;;;;;;;7.65;4.25;;;;;;;;;;5012766;28;20037;-83
2022/08/24 05:05:50;;;;;;;7.47;3.92;;;;;;;;;;5007304;28;20048;-83
2022/08/24 05:08:18;;;;;;;8.20;4.20;;;;;;;;;;5014883;28;20108;-83
2022/08/24 05:10:46;;;;;;;6.75;3.90;;;;;;;;;;4997055;28;20038;-82
2022/08/24 05:13:12;;;;;;;9.68;4.47;;;;;;;;;;5001191;28;20415;-82
2022/08/24 05:15:43;;;;;;;7.25;4.15;;;;;;;;;;5006225;28;20045;-82
2022/08/24 05:18:09;;;;;;;7.20;4.10;;;;;;;;;;5010186;28;20036;-83
2022/08/24 05:20:38;;;;;;;9.52;4.43;;;;;;;;;;5006812;28;20018;-82
2022/08/24 05:23:03;;;;;;;9.00;4.57;;;;;;;;;;5006775;28;20034;-83
2022/08/24 05:25:29;;;;;;;9.55;4.22;;;;;;;;;;5013782;28;20033;-82
2022/08/24 05:27:54;;;;;;;8.85;4.25;;;;;;;;;;4994032;28;20026;-83
2022/08/24 05:30:20;;;;;;;12.23;4.88;;;;;;;;;;4992262;28;20038;-82
2022/08/24 05:32:45;;;;;;;11.88;4.63;;;;;;;;;;5010371;28;20014;-82
2022/08/24 05:35:11;;;;;;;6.90;4.28;;;;;;;;;;4991513;28;20542;-82
2022/08/24 05:37:38;;;;;;;9.57;5.43;;;;;;;;;;5015168;28;20033;-81
2022/08/24 05:40:07;;;;;;;8.13;5.00;;;;;;;;;;5013462;28;20045;-82
2022/08/24 05:42:32;;;;;;;10.30;4.93;;;;;;;;;;4989633;28;20480;-82
2022/08/24 05:44:58;;;;;;;10.40;5.63;;;;;;;;;;5005001;28;20534;-82
2022/08/24 05:47:24;;;;;;;12.30;6.55;;;;;;;;;;4998961;28;20033;-82
2022/08/24 05:49:51;;;;;;;13.25;6.28;;;;;;;;;;5013402;28;20029;-82
2022/08/24 05:52:18;;;;;;;8.93;5.90;;;;;;;;;;5019377;28;20712;-82
2022/08/24 05:54:44;;;;;;;10.18;6.03;;;;;;;;;;5009025;28;20499;-81
2022/08/24 05:57:10;;;;;;;9.93;5.80;;;;;;;;;;5013567;28;20053;-82
2022/08/24 05:59:36;;;;;;;14.25;6.68;;;;;;;;;;5004641;28;20073;-82
2022/08/24 06:02:02;;;;;;;12.00;6.82;;;;;;;;;;5005183;28;20041;-81
2022/08/24 06:04:28;;;;;;;16.27;8.13;;;;;;;;;;5008421;28;20042;-82
2022/08/24 06:06:54;;;;;;;13.63;7.47;;;;;;;;;;4989654;28;20081;-82
2022/08/24 06:09:20;;;;;;;15.15;8.27;;;;;;;;;;5006030;28;20115;-82
2022/08/24 06:11:46;;;;;;;11.95;7.57;;;;;;;;;;4989715;28;20108;-82
2022/08/24 06:14:15;;;;;;;14.15;6.90;;;;;;;;;;5013124;28;20475;-82
2022/08/24 06:16:43;;;;;;;17.45;7.72;;;;;;;;;;5010142;28;20038;-82
2022/08/24 06:19:11;;;;;;;15.52;7.60;;;;;;;;;;5012778;28;20033;-83
2022/08/24 06:21:37;;;;;;;13.07;7.30;;;;;;;;;;5010399;28;20125;-81
2022/08/24 06:24:03;;;;;;;15.65;8.35;;;;;;;;;;5015928;28;20113;-82
2022/08/24 06:29:13;;;;;;;15.25;7.88;;;;;;;;;;5012296;28;20049;-82
2022/08/24 06:31:41;;;;;;;15.13;8.27;;;;;;;;;;5009246;28;20025;-82
2022/08/24 06:34:08;;;;;;;13.07;8.10;;;;;;;;;;5009616;28;20542;-82
2022/08/24 06:36:33;;;;;;;14.48;8.05;;;;;;;;;;5012991;28;20136;-82
2022/08/24 06:38:59;;;;;;;15.52;8.48;;;;;;;;;;4990562;28;20408;-82
2022/08/24 06:41:25;;;;;;;17.08;7.80;;;;;;;;;;4990268;28;20029;-82
2022/08/24 06:43:51;;;;;;;15.23;8.50;;;;;;;;;;5010259;28;20102;-82
2022/08/24 06:46:16;;;;;;;14.32;7.78;;;;;;;;;;5005899;28;20539;-82
2022/08/24 06:48:42;;;;;;;19.80;9.40;;;;;;;;;;5009682;28;20033;-82
2022/08/24 06:51:14;;;;;;;15.02;6.85;;;;;;;;;;5011527;28;20499;-82
2022/08/24 06:53:40;;;;;;;15.83;8.60;;;;;;;;;;5010114;28;20033;-83
2022/08/24 06:56:06;;;;;;;15.30;8.60;;;;;;;;;;4989701;28;20415;-83
2022/08/24 06:58:32;;;;;;;16.65;9.05;;;;;;;;;;5008095;28;20057;-84
2022/08/24 07:01:07;;;;;;;17.27;9.38;;;;;;;;;;4990389;28;20034;-88
2022/08/24 07:03:32;;;;;;;17.35;9.90;;;;;;;;;;4990053;28;20042;-88
2022/08/24 07:05:58;;;;;;;18.23;9.48;;;;;;;;;;4994299;28;20025;-90
2022/08/24 07:08:23;;;;;;;18.10;8.98;;;;;;;;;;4994683;28;20014;-92
2022/08/24 07:10:50;;;;;;;19.92;10.43;;;;;;;;;;4990908;28;20065;-96
2022/08/24 07:13:18;;;;;;;17.67;9.40;;;;;;;;;;4989242;28;20116;-92
2022/08/24 07:15:44;;;;;;;16.58;9.45;;;;;;;;;;4989638;28;20038;-93
2022/08/24 07:18:17;;;;;;;22.00;10.57;;;;;;;;;;5013363;28;20045;-94
2022/08/24 07:20:42;;;;;;;;;;;;;;;;;;5004096;28;20022;-86
2022/08/24 07:23:11;;;;;;;17.25;9.45;;;;;;;;;;5019223;28;19921;-89
2022/08/24 07:25:37;;;;;;;22.52;9.73;;;;;;;;;;4997828;28;20061;-87
2022/08/24 07:28:05;;;;;;;21.40;10.25;;;;;;;;;;5016970;28;20061;-88
2022/08/24 07:30:30;;;;;;;19.63;10.18;;;;;;;;;;4985026;28;20050;-87
2022/08/24 07:32:57;;;;;;;20.15;10.23;;;;;;;;;;4991396;28;20110;-88
2022/08/24 07:35:25;;;;;;;18.38;9.82;;;;;;;;;;4992863;28;20032;-87
2022/08/24 07:37:51;;;;;;;17.65;10.10;;;;;;;;;;4993024;28;20880;-90
2022/08/24 07:40:17;;;;;;;16.88;9.15;;;;;;;;;;4989525;28;20416;-91
2022/08/24 07:42:47;;;;;;;20.98;10.43;;;;;;;;;;4991051;28;20037;-90
2022/08/24 07:45:12;;;;;;;18.40;10.02;;;;;;;;;;4995104;28;20416;-87
2022/08/24 07:47:38;;;;;;;13.65;8.57;;;;;;;;;;4994997;28;20555;-87
2022/08/24 07:50:03;;;;;;;15.60;9.50;;;;;;;;;;4986654;28;20504;-87
2022/08/24 07:52:30;;;;;;;14.13;8.93;;;;;;;;;;5021628;28;20029;-88
2022/08/24 07:54:55;;;;;;;19.80;9.15;;;;;;;;;;4998609;28;20045;-86
2022/08/24 07:57:20;;;;;;;15.20;8.30;;;;;;;;;;5013173;28;20038;-86
2022/08/24 07:59:46;;;;;;;13.15;7.88;;;;;;;;;;5015333;28;20379;-88
2022/08/24 08:02:13;;;;;;;11.00;6.88;;;;;;;;;;5004934;28;20048;-88
2022/08/24 08:04:39;;;;;;;12.05;7.00;;;;;;;;;;5005182;28;20077;-86
2022/08/24 08:07:06;;;;;;;14.88;7.20;;;;;;;;;;5013175;28;20088;-85
2022/08/24 08:09:32;;;;;;;9.80;6.32;;;;;;;;;;5018392;28;20090;-88
2022/08/24 08:11:58;;;;;;;11.70;7.18;;;;;;;;;;5014256;28;20032;-85
2022/08/24 08:14:24;;;;;;;12.65;7.90;;;;;;;;;;4991866;28;20282;-85
2022/08/24 08:16:50;;;;;;;11.85;6.35;;;;;;;;;;4990855;28;20029;-84
2022/08/24 08:19:16;;;;;;;9.82;6.00;;;;;;;;;;5004930;28;20035;-84
2022/08/24 08:24:32;;;;;;;9.25;5.85;;;;;;;;;;5009412;28;20094;-84
2022/08/24 08:26:58;;;;;;;7.35;4.80;;;;;;;;;;5007746;28;20514;-85
2022/08/24 08:29:24;;;;;;;8.93;5.00;;;;;;;;;;5001529;28;20026;-83
2022/08/24 08:31:51;;;;;;;9.45;5.75;;;;;;;;;;5005977;28;20073;-85
2022/08/24 08:34:17;;;;;;;10.35;6.82;;;;;;;;;;4980681;28;20030;-86
2022/08/24 08:36:43;;;;;;;9.27;5.97;;;;;;;;;;4985148;28;20073;-84
2022/08/24 08:39:12;;;;;;;10.88;5.32;;;;;;;;;;4996167;28;20050;-85
2022/08/24 08:42:13;;;;;;;9.15;5.07;;;;;;;;;;4999564;28;20037;-83
2022/08/24 08:45:00;;;;;;;8.88;4.50;;;;;;;;;;4958561;28;20196;-84
2022/08/24 08:50:15;;;;;;;7.32;4.97;;;;;;;;;;4967487;28;20043;-84
2022/08/24 08:53:00;;;;;;;9.10;4.80;;;;;;;;;;4986127;28;20393;-85
2022/08/24 08:55:44;;;;;;;9.23;4.90;;;;;;;;;;4984679;28;20030;-84
2022/08/24 08:58:34;;;;;;;13.90;5.63;;;;;;;;;;5005387;28;20050;-84
2022/08/24 09:01:25;;;;;;;6.63;3.88;;;;;;;;;;5004911;28;20042;-84
2022/08/24 09:04:24;;;;;;;8.23;4.22;;;;;;;;;;5006122;28;20073;-85
2022/08/24 09:07:10;;;;;;;8.75;4.63;;;;;;;;;;4980785;28;20099;-84
2022/08/24 09:10:08;;;;;;;10.48;4.35;;;;;;;;;;4981175;28;20403;-85
2022/08/24 09:12:51;;;;;;;10.13;4.38;;;;;;;;;;4982296;28;20042;-84
2022/08/24 09:15:35;;;;;;;7.32;4.22;;;;;;;;;;4983805;28;20070;-85
2022/08/24 09:18:20;;;;;;;6.97;4.22;;;;;;;;;;5005335;28;20026;-85
2022/08/24 09:20:55;;;;;;;6.68;4.28;;;;;;;;;;5006245;28;20511;-85
2022/08/24 09:24:00;;;;;;;8.20;4.10;;;;;;;;;;5007982;28;20037;-83
2022/08/24 09:26:29;;;;;;;16.20;4.97;;;;;;;;;;4998073;28;20389;-85
2022/08/24 09:29:21;;;;;;;9.70;5.13;;;;;;;;;;5010392;28;20037;-83
2022/08/24 09:31:50;;;;;;;8.52;4.63;;;;;;;;;;5008672;28;20045;-84
2022/08/24 09:34:28;;;;;;;5.18;3.00;;;;;;;;;;5009681;28;20054;-84
2022/08/24 09:37:29;;;;;;;5.35;2.40;;;;;;;;;;5008183;28;20042;-84
2022/08/24 09:40:23;;;;;;;9.52;3.92;;;;;;;;;;4928142;28;20612;-84
2022/08/24 09:43:03;;;;;;;3.83;2.95;;;;;;;;;;4991673;28;20069;-84
2022/08/24 09:45:46;;;;;;;8.70;2.95;;;;;;;;;;4982565;28;20076;-84
2022/08/24 09:48:23;;;;;;;11.90;3.70;;;;;;;;;;5003747;28;20057;-85
2022/08/24 09:51:10;;;;;;;2.75;2.25;;;;;;;;;;5001623;28;20026;-84
2022/08/24 09:53:42;;;;;;;3.75;2.40;;;;;;;;;;4995929;28;20053;-85
2022/08/24 09:56:17;;;;;;;5.72;1.95;;;;;;;;;;4986539;28;20052;-85
2022/08/24 09:58:57;;;;;;;6.63;2.20;;;;;;;;;;4987564;28;20116;-85
2022/08/24 10:01:32;;;;;;;4.47;2.50;;;;;;;;;;4988145;28;20043;-84
2022/08/24 10:04:10;;;;;;;3.78;2.20;;;;;;;;;;4988852;28;20044;-85
2022/08/24 10:07:06;;;;;;;6.65;2.58;;;;;;;;;;4984003;28;20042;-84
2022/08/24 10:10:08;;;;;;;4.03;2.63;;;;;;;;;;5002612;28;20733;-84
2022/08/24 10:12:47;;;;;;;3.58;1.98;;;;;;;;;;5000896;28;20176;-84
2022/08/24 10:15:22;;;;;;;2.90;2.00;;;;;;;;;;5005247;28;20121;-84
2022/08/24 10:17:57;;;;;;;3.22;1.77;;;;;;;;;;4987297;28;20072;-86
2022/08/24 10:20:33;;;;;;;3.53;1.90;;;;;;;;;;5003585;28;20045;-85
2022/08/24 10:23:08;;;;;;;8.13;2.20;;;;;;;;;;5002756;28;20485;-83
2022/08/24 10:26:11;;;;;;;2.42;1.67;;;;;;;;;;5004770;28;20073;-85
2022/08/24 10:28:45;;;;;;;3.17;1.83;;;;;;;;;;4954063;28;20087;-84
2022/08/24 10:31:17;;;;;;;1.90;1.75;;;;;;;;;;5000835;28;20042;-83
2022/08/24 10:34:04;;;;;;;7.07;2.30;;;;;;;;;;4991845;28;20120;-84
2022/08/24 10:36:44;;;;;;;3.60;1.60;;;;;;;;;;4988090;28;20034;-84
2022/08/24 10:39:40;;;;;;;3.03;1.70;;;;;;;;;;5004319;28;20034;-84
2022/08/24 10:45:55;;;;;;;3.45;1.83;;;;;;;;;;5003615;28;20515;-85
2022/08/24 10:48:29;;;;;;;3.90;1.90;;;;;;;;;;4984549;28;20985;-84
2022/08/24 10:51:16;;;;;;;4.85;1.77;;;;;;;;;;4999337;28;20028;-83
2022/08/24 10:53:48;;;;;;;3.95;1.70;;;;;;;;;;5018682;28;20057;-84
2022/08/24 10:56:18;;;;;;;2.53;1.70;;;;;;;;;;4997666;28;20523;-84
2022/08/24 10:59:01;;;;;;;3.85;1.85;;;;;;;;;;4999036;28;20073;-84
2022/08/24 11:01:32;;;;;;;3.72;1.80;;;;;;;;;;5006281;28;20532;-85
2022/08/24 11:04:00;;;;;;;2.45;1.70;;;;;;;;;;5008640;28;20045;-84
2022/08/24 11:06:30;;;;;;;2.70;1.80;;;;;;;;;;4987798;28;20046;-84
2022/08/24 11:09:04;;;;;;;2.60;1.85;;;;;;;;;;4993861;28;20377;-85
2022/08/24 11:11:51;;;;;;;7.20;1.95;;;;;;;;;;4989298;28;20026;-84
2022/08/24 11:14:19;;;;;;;3.90;1.70;;;;;;;;;;5001519;28;20780;-83
2022/08/24 11:16:45;;;;;;;3.88;1.63;;;;;;;;;;5000883;28;20044;-85
2022/08/24 11:19:30;;;;;;;4.00;2.00;;;;;;;;;;4982718;28;20128;-84
2022/08/24 11:22:02;;;;;;;5.50;1.92;;;;;;;;;;5002881;28;20030;-84
2022/08/24 11:24:46;;;;;;;2.50;2.00;;;;;;;;;;4998978;28;20038;-84
2022/08/24 11:27:34;;;;;;;2.38;2.00;;;;;;;;;;5003481;28;20039;-85
2022/08/24 11:30:19;;;;;;;2.83;1.70;;;;;;;;;;4997463;28;20156;-85
2022/08/24 11:32:52;;;;;;;2.67;2.00;;;;;;;;;;4964814;28;20042;-85
2022/08/24 11:35:23;;;;;;;1.80;1.70;;;;;;;;;;4997443;28;20049;-84
2022/08/24 11:37:51;;;;;;;4.68;1.90;;;;;;;;;;4978649;28;20979;-85
2022/08/24 11:40:20;;;;;;;2.63;1.52;;;;;;;;;;5008848;28;20517;-85
2022/08/24 11:43:07;;;;;;;2.28;1.88;;;;;;;;;;5008810;28;20516;-86
2022/08/24 11:46:20;;;;;;;4.22;2.03;;;;;;;;;;5009081;28;20121;-86
2022/08/24 11:49:21;;;;;;;2.08;1.58;;;;;;;;;;5001128;28;20117;-84
2022/08/24 11:52:05;;;;;;;2.50;2.10;;;;;;;;;;5006482;28;20061;-85
2022/08/24 11:54:33;;;;;;;3.65;1.80;;;;;;;;;;4986364;28;20076;-85
2022/08/24 11:57:17;;;;;;;3.15;1.80;;;;;;;;;;4999895;28;20569;-85
2022/08/24 12:00:12;;;;;;;5.60;1.98;;;;;;;;;;4993329;28;20033;-84
2022/08/24 12:02:54;;;;;;;2.00;1.70;;;;;;;;;;4958378;28;20142;-84
2022/08/24 12:05:25;;;;;;;2.05;1.70;;;;;;;;;;4980256;28;20072;-85
2022/08/24 12:08:01;;;;;;;1.83;1.60;;;;;;;;;;4979669;28;20108;-84
2022/08/24 12:10:48;;;;;;;2.03;1.77;;;;;;;;;;4983236;28;20545;-84
2022/08/24 12:13:22;;;;;;;1.63;1.52;;;;;;;;;;4973863;28;20050;-84
2022/08/24 12:16:24;;;;;;;1.77;1.67;;;;;;;;;;4966765;28;20034;-85
2022/08/24 12:18:50;;;;;;;2.33;1.73;;;;;;;;;;4998910;28;20048;-85
2022/08/24 12:21:19;;;;;;;3.10;2.10;;;;;;;;;;5008191;28;20034;-85
2022/08/24 12:23:49;;;;;;;2.78;1.65;;;;;;;;;;5004300;28;20026;-86
2022/08/24 12:26:39;;;;;;;8.73;1.80;;;;;;;;;;4998323;28;20045;-86
2022/08/24 12:29:05;;;;;;;4.18;1.58;;;;;;;;;;4990425;28;20101;-86
2022/08/24 12:31:48;;;;;;;2.20;1.50;;;;;;;;;;4998906;28;20042;-85
2022/08/24 12:34:22;;;;;;;;;;;;;;;;;;4981795;28;20042;-86
2022/08/24 12:37:06;;;;;;;2.60;1.80;;;;;;;;;;4985940;28;19932;-84
2022/08/24 12:39:41;;;;;;;2.40;2.10;;;;;;;;;;4988155;28;20042;-85
2022/08/24 12:42:24;;;;;;;3.40;2.20;;;;;;;;;;4968943;28;20085;-85
2022/08/24 12:44:57;;;;;;;1.70;1.60;;;;;;;;;;4987263;28;20114;-85
2022/08/24 12:47:26;;;;;;;3.30;1.90;;;;;;;;;;4989526;28;20080;-85
2022/08/24 12:50:01;;;;;;;1.77;1.65;;;;;;;;;;4983792;28;20065;-84
2022/08/24 12:52:41;;;;;;;5.35;1.60;;;;;;;;;;4984563;28;20093;-84
2022/08/24 12:55:37;;;;;;;2.08;1.70;;;;;;;;;;4984580;28;20042;-84
2022/08/24 12:58:26;;;;;;;4.07;1.63;;;;;;;;;;4990357;28;20045;-85
2022/08/24 13:00:54;;;;;;;2.85;1.58;;;;;;;;;;4988786;28;20081;-84
2022/08/24 13:03:29;;;;;;;2.50;1.73;;;;;;;;;;4987365;28;20033;-85
2022/08/24 13:05:59;;;;;;;2.20;1.80;;;;;;;;;;5008492;28;20172;-83
2022/08/24 13:08:38;;;;;;;2.67;2.00;;;;;;;;;;5008638;28;20029;-85
2022/08/24 13:11:12;;;;;;;3.00;1.75;;;;;;;;;;5002363;28;20070;-83
2022/08/24 13:13:44;;;;;;;1.70;1.55;;;;;;;;;;4980200;28;20037;-84
2022/08/24 13:16:09;;;;;;;3.42;1.73;;;;;;;;;;5006468;28;20092;-84
2022/08/24 13:18:52;;;;;;;4.72;1.70;;;;;;;;;;5005975;28;20042;-85
2022/08/24 13:21:43;;;;;;;1.67;1.58;;;;;;;;;;4994307;28;20049;-86
2022/08/24 13:24:29;;;;;;;4.10;1.80;;;;;;;;;;5003612;28;20467;-85
2022/08/24 13:27:20;;;;;;;4.68;1.80;;;;;;;;;;5005825;28;20026;-86
2022/08/24 13:29:52;;;;;;;5.55;1.83;;;;;;;;;;5008724;28;20009;-86
2022/08/24 13:32:31;;;;;;;6.63;3.60;;;;;;;;;;5011949;28;20046;-86
2022/08/24 13:35:19;;;;;;;3.03;1.80;;;;;;;;;;4982479;28;20037;-86
2022/08/24 13:38:23;;;;;;;2.70;1.77;;;;;;;;;;5005203;28;20129;-85
2022/08/24 13:40:56;;;;;;;2.88;1.88;;;;;;;;;;5004284;28;20041;-86
2022/08/24 13:43:31;;;;;;;2.95;1.80;;;;;;;;;;5008765;28;20051;-86
2022/08/24 13:46:21;;;;;;;1.70;1.60;;;;;;;;;;5007493;28;20115;-86
2022/08/24 13:48:59;;;;;;;4.40;1.63;;;;;;;;;;5019154;28;20136;-85
2022/08/24 13:51:39;;;;;;;2.35;1.52;;;;;;;;;;4989766;28;20049;-85
2022/08/24 13:54:14;;;;;;;2.80;1.80;;;;;;;;;;5005684;28;20038;-85
2022/08/24 13:56:48;;;;;;;4.57;2.00;;;;;;;;;;4991738;28;20033;-84
2022/08/24 13:59:32;;;;;;;2.80;1.70;;;;;;;;;;5007942;28;20076;-84
2022/08/24 14:02:03;;;;;;;2.38;1.73;;;;;;;;;;5010097;28;20108;-84
2022/08/24 14:04:31;;;;;;;5.10;1.60;;;;;;;;;;5009281;28;20056;-85
2022/08/24 14:07:18;;;;;;;4.72;1.58;;;;;;;;;;5000655;28;20635;-86
2022/08/24 14:09:52;;;;;;;3.10;1.67;;;;;;;;;;4988912;28;20045;-86
2022/08/24 14:12:29;;;;;;;2.53;1.80;;;;;;;;;;4999743;28;20042;-85
2022/08/24 14:15:05;;;;;;;8.25;1.90;;;;;;;;;;4979191;28;20065;-85
2022/08/24 14:17:50;;;;;;;2.22;1.63;;;;;;;;;;4987806;28;20022;-85
2022/08/24 14:20:41;;;;;;;2.60;1.75;;;;;;;;;;4998598;28;20050;-85
2022/08/24 14:23:16;;;;;;;1.95;1.73;;;;;;;;;;5010361;28;20117;-84
2022/08/24 14:25:43;;;;;;;3.35;1.73;;;;;;;;;;5000200;28;20103;-84
2022/08/24 14:28:23;;;;;;;3.30;2.00;;;;;;;;;;4997702;28;20052;-85
2022/08/24 14:31:11;;;;;;;3.05;1.90;;;;;;;;;;5009818;28;20104;-85
2022/08/24 14:33:48;;;;;;;2.60;2.00;;;;;;;;;;4986310;28;20038;-84
2022/08/24 14:36:19;;;;;;;2.63;1.80;;;;;;;;;;5004609;28;20045;-85
2022/08/24 14:38:57;;;;;;;3.53;1.90;;;;;;;;;;4978480;28;20030;-86
2022/08/24 14:41:46;;;;;;;5.03;1.70;;;;;;;;;;4983476;28;20124;-85
2022/08/24 14:44:34;;;;;;;2.95;1.50;;;;;;;;;;4987559;28;20099;-84
2022/08/24 14:47:24;;;;;;;2.03;1.77;;;;;;;;;;5002618;28;20065;-86
2022/08/24 14:49:57;;;;;;;3.30;1.55;;;;;;;;;;4985769;28;20045;-86
2022/08/24 14:52:49;;;;;;;2.78;1.92;;;;;;;;;;4988111;28;20093;-85
2022/08/24 14:55:23;;;;;;;5.43;1.63;;;;;;;;;;5000564;28;20052;-85
2022/08/24 14:58:08;;;;;;;3.08;1.60;;;;;;;;;;5000912;28;20046;-87
2022/08/24 15:00:53;;;;;;;2.95;1.70;;;;;;;;;;4987545;28;20121;-85
2022/08/24 15:03:40;;;;;;;1.67;1.58;;;;;;;;;;4995222;28;20045;-85
2022/08/24 15:06:06;;;;;;;5.45;1.90;;;;;;;;;;5001638;28;20057;-86
2022/08/24 15:08:41;;;;;;;4.10;1.95;;;;;;;;;;4983170;28;20073;-86
2022/08/24 15:11:14;;;;;;;9.80;1.88;;;;;;;;;;4982816;28;20034;-86
2022/08/24 15:14:02;;;;;;;2.10;1.67;;;;;;;;;;4997519;28;20038;-85
2022/08/24 15:16:37;;;;;;;1.85;1.60;;;;;;;;;;4981527;28;20092;-85
2022/08/24 15:19:26;;;;;;;1.75;1.65;;;;;;;;;;4980841;28;20041;-85
2022/08/24 15:22:07;;;;;;;2.05;1.73;;;;;;;;;;5007167;28;20523;-85
2022/08/24 15:24:42;;;;;;;2.10;1.50;;;;;;;;;;5002214;28;20611;-87
2022/08/24 15:27:29;;;;;;;1.52;1.42;;;;;;;;;;5002847;28;20034;-86